Terminal Aerodrome Forecast
Issued by NWS Lubbock, TX

Current Version | Previous Version | Text Only | Print | Product List | Glossary On
Versions: 1 2 3 4 5 6 7 8 9 10 11 12 13 14 15 16 17 18 19 20 21 22 23 24 25
000
FTUS44 KLUB 230556 AAA
TAFLBB
TAF AMD
KLBB 230556Z 2306/2406 11012KT 1/4SM DZ FG OVC002
     FM230900 13010KT 3SM TSRA BKN004 OVC015CB
     FM231400 17015KT P6SM SCT010 BKN035=

USA.gov is the U.S. government's official web portal to all federal, state and local government web resources and services.